createdAt,value
2022-12-04T00:01:28.118Z,2.70
2022-12-04T00:03:57.443Z,2.77
2022-12-04T00:06:26.818Z,2.97
2022-12-04T00:08:55.722Z,3.18
2022-12-04T00:11:27.291Z,2.88
2022-12-04T00:13:55.712Z,2.79
2022-12-04T00:16:27.083Z,2.73
2022-12-04T00:18:55.644Z,2.92
2022-12-04T00:21:24.974Z,2.94
2022-12-04T00:23:54.353Z,3.08
2022-12-04T00:26:25.006Z,3.23
2022-12-04T00:28:53.974Z,2.76
2022-12-04T00:31:24.055Z,2.61
2022-12-04T00:33:53.853Z,2.93
2022-12-04T00:36:24.321Z,2.76
2022-12-04T00:38:52.925Z,2.98
2022-12-04T00:41:23.351Z,3.09
2022-12-04T00:43:51.749Z,3.29
2022-12-04T00:46:20.815Z,2.98
2022-12-04T00:48:49.444Z,3.04
2022-12-04T00:51:20.700Z,2.99
2022-12-04T00:53:49.015Z,2.79
2022-12-04T00:56:18.910Z,2.84
2022-12-04T00:58:47.804Z,2.64
2022-12-04T01:01:17.845Z,2.59
2022-12-04T01:03:46.527Z,2.64
2022-12-04T01:06:24.583Z,2.84
2022-12-04T01:08:54.185Z,2.72
2022-12-04T01:11:23.589Z,2.51
2022-12-04T01:13:52.139Z,2.48
2022-12-04T01:16:22.788Z,2.52
2022-12-04T01:18:51.296Z,2.49
2022-12-04T01:21:20.045Z,2.75
2022-12-04T01:23:49.645Z,2.93
2022-12-04T01:26:17.687Z,2.90
2022-12-04T01:28:45.817Z,2.99
2022-12-04T01:31:16.087Z,2.77
2022-12-04T01:33:45.009Z,2.71
2022-12-04T01:36:15.750Z,2.75
2022-12-04T01:38:43.862Z,2.89
2022-12-04T01:41:15.574Z,2.57
2022-12-04T01:43:44.288Z,2.74
2022-12-04T01:46:13.215Z,2.78
2022-12-04T01:48:47.423Z,2.81
2022-12-04T01:51:21.087Z,2.80
2022-12-04T01:53:53.972Z,2.79
2022-12-04T01:56:27.841Z,3.21
2022-12-04T01:59:00.097Z,2.91
2022-12-04T02:01:30.403Z,2.90
2022-12-04T02:04:00.232Z,3.17
2022-12-04T02:06:28.414Z,3.07
2022-12-04T02:08:56.649Z,3.23
2022-12-04T02:11:32.530Z,3.45
2022-12-04T02:14:08.925Z,3.39
2022-12-04T02:16:44.630Z,3.49
2022-12-04T02:19:34.103Z,3.18
2022-12-04T02:22:11.906Z,3.30
2022-12-04T02:24:53.882Z,3.15
2022-12-04T02:27:36.509Z,3.12
2022-12-04T02:30:09.923Z,2.97
2022-12-04T02:32:43.585Z,3.26
2022-12-04T02:35:16.890Z,3.04
2022-12-04T02:37:49.055Z,3.10
2022-12-04T02:40:25.280Z,2.92
2022-12-04T02:43:00.977Z,3.24
2022-12-04T02:45:35.089Z,2.98
2022-12-04T02:48:06.029Z,2.88
2022-12-04T02:50:38.635Z,2.46
2022-12-04T02:53:11.650Z,2.90
2022-12-04T02:55:46.198Z,2.86
2022-12-04T02:58:20.269Z,2.72
2022-12-04T03:00:51.729Z,2.88
2022-12-04T03:03:24.683Z,2.79
2022-12-04T03:05:59.213Z,2.71
2022-12-04T03:08:33.653Z,2.64
2022-12-04T03:11:02.581Z,2.84
2022-12-04T03:13:37.389Z,2.73
2022-12-04T03:16:11.750Z,3.18
2022-12-04T03:18:44.147Z,3.23
2022-12-04T03:21:17.793Z,3.15
2022-12-04T03:23:49.938Z,3.24
2022-12-04T03:26:27.172Z,3.16
2022-12-04T03:29:00.346Z,3.31
2022-12-04T03:31:36.300Z,3.46
2022-12-04T03:34:07.280Z,3.63
2022-12-04T03:36:39.213Z,3.52
2022-12-04T03:39:13.955Z,3.51
2022-12-04T03:41:55.405Z,3.44
2022-12-04T03:44:30.127Z,3.24
2022-12-04T03:47:05.796Z,3.11
2022-12-04T03:49:41.795Z,3.12
2022-12-04T03:52:15.732Z,2.91
2022-12-04T03:54:48.428Z,2.91
2022-12-04T03:57:21.341Z,2.65
2022-12-04T03:59:56.129Z,3.26
2022-12-04T04:02:29.865Z,3.39
2022-12-04T04:05:01.609Z,3.37
2022-12-04T04:07:35.849Z,3.36
2022-12-04T04:10:08.928Z,3.49
2022-12-04T04:12:42.442Z,3.44
2022-12-04T04:15:32.359Z,3.08
2022-12-04T04:18:20.831Z,3.11
2022-12-04T04:21:11.665Z,3.09
2022-12-04T04:24:01.731Z,3.24
2022-12-04T04:26:35.714Z,3.48
2022-12-04T04:29:03.904Z,3.75
2022-12-04T04:31:38.034Z,3.83
2022-12-04T04:34:19.070Z,3.82
2022-12-04T04:36:55.330Z,3.48
2022-12-04T04:39:33.918Z,3.51
2022-12-04T04:42:07.879Z,3.90
2022-12-04T04:44:46.201Z,4.18
2022-12-04T04:47:20.076Z,4.10
2022-12-04T04:49:53.209Z,4.11
2022-12-04T04:52:24.461Z,4.28
2022-12-04T04:54:52.868Z,4.26
2022-12-04T04:57:29.125Z,4.26
2022-12-04T04:59:57.617Z,4.03
2022-12-04T05:02:27.047Z,4.30
2022-12-04T05:04:56.827Z,4.46
2022-12-04T05:07:25.117Z,4.48
2022-12-04T05:09:53.656Z,4.01
2022-12-04T05:12:22.856Z,4.34
2022-12-04T05:14:51.201Z,4.27
2022-12-04T05:17:19.737Z,4.03
2022-12-04T05:19:57.878Z,3.95
2022-12-04T05:22:32.005Z,3.73
2022-12-04T05:25:01.452Z,3.83
2022-12-04T05:27:31.732Z,4.11
2022-12-04T05:30:00.494Z,3.81
2022-12-04T05:32:30.299Z,3.91
2022-12-04T05:34:58.912Z,4.04
2022-12-04T05:37:28.352Z,3.79
2022-12-04T05:39:56.678Z,3.62
2022-12-04T05:42:25.154Z,3.89
2022-12-04T05:44:53.246Z,3.75
2022-12-04T05:47:21.312Z,3.81
2022-12-04T05:49:49.404Z,3.84
2022-12-04T05:52:17.488Z,3.75
2022-12-04T05:54:47.187Z,3.68
2022-12-04T05:57:15.174Z,3.86
2022-12-04T05:59:43.378Z,3.88
2022-12-04T06:02:11.751Z,3.67
2022-12-04T06:04:40.017Z,3.87
2022-12-04T06:07:10.537Z,3.63
2022-12-04T06:09:41.033Z,3.51
2022-12-04T06:12:10.520Z,3.22
2022-12-04T06:14:40.001Z,3.37
2022-12-04T06:17:08.844Z,3.28
2022-12-04T06:19:36.880Z,3.57
2022-12-04T06:22:06.325Z,3.12
2022-12-04T06:24:34.459Z,3.22
2022-12-04T06:27:26.852Z,3.29
2022-12-04T06:29:55.023Z,3.10
2022-12-04T06:32:23.606Z,3.15
2022-12-04T06:34:53.492Z,2.90
2022-12-04T06:37:23.644Z,3.01
2022-12-04T06:39:52.097Z,3.21
2022-12-04T06:42:20.339Z,3.41
2022-12-04T06:44:48.493Z,3.27
2022-12-04T06:47:18.646Z,3.57
2022-12-04T06:49:51.208Z,3.89
2022-12-04T06:52:19.722Z,4.00
2022-12-04T06:54:48.487Z,4.30
2022-12-04T06:57:16.778Z,4.40
2022-12-04T06:59:45.086Z,4.23
2022-12-04T07:02:13.205Z,3.93
2022-12-04T07:04:43.274Z,4.19
2022-12-04T07:07:13.353Z,4.34
2022-12-04T07:09:41.824Z,4.20
2022-12-04T07:12:10.203Z,4.34
2022-12-04T07:14:38.411Z,4.48
2022-12-04T07:17:09.180Z,4.09
2022-12-04T07:19:38.745Z,3.90
2022-12-04T07:22:09.396Z,3.86
2022-12-04T07:24:40.678Z,4.03
2022-12-04T07:27:09.257Z,4.18
2022-12-04T07:29:37.542Z,4.02
2022-12-04T07:32:06.783Z,4.01
2022-12-04T07:34:35.759Z,3.40
2022-12-04T07:37:04.046Z,3.04
2022-12-04T07:39:33.618Z,3.29
2022-12-04T07:42:01.939Z,3.27
2022-12-04T07:44:32.138Z,3.16
2022-12-04T07:47:00.514Z,3.43
2022-12-04T07:49:30.839Z,3.44
2022-12-04T07:52:00.596Z,3.56
2022-12-04T07:54:28.917Z,4.17
2022-12-04T07:56:58.640Z,4.05
2022-12-04T07:59:26.950Z,4.08
2022-12-04T08:01:55.481Z,3.71
2022-12-04T08:04:23.767Z,3.75
2022-12-04T08:06:52.025Z,4.06
2022-12-04T08:09:20.518Z,4.08
2022-12-04T08:11:48.989Z,3.94
2022-12-04T08:14:18.547Z,3.28
2022-12-04T08:16:52.330Z,3.51
2022-12-04T08:19:21.488Z,3.26
2022-12-04T08:21:52.209Z,3.30
2022-12-04T08:24:20.802Z,3.18
2022-12-04T08:26:49.080Z,3.51
2022-12-04T08:29:18.784Z,3.77
2022-12-04T08:31:46.937Z,3.64
2022-12-04T08:34:15.840Z,3.71
2022-12-04T08:36:44.166Z,3.89
2022-12-04T08:39:13.112Z,4.09
2022-12-04T08:41:41.214Z,3.95
2022-12-04T08:44:11.197Z,4.02
2022-12-04T08:46:43.503Z,4.40
2022-12-04T08:49:12.068Z,4.55
2022-12-04T08:51:42.139Z,4.85
2022-12-04T08:54:13.881Z,4.94
2022-12-04T08:56:43.994Z,5.19
2022-12-04T08:59:14.490Z,5.07
2022-12-04T09:01:44.401Z,4.87
2022-12-04T09:04:12.866Z,5.16
2022-12-04T09:06:41.448Z,5.39
2022-12-04T09:09:09.565Z,5.27
2022-12-04T09:11:38.716Z,4.85
2022-12-04T09:14:07.417Z,5.05
2022-12-04T09:16:35.655Z,4.96
2022-12-04T09:19:05.283Z,4.97
2022-12-04T09:21:33.600Z,5.04
2022-12-04T09:24:02.093Z,5.35
2022-12-04T09:26:32.261Z,5.38
2022-12-04T09:29:01.942Z,5.31
2022-12-04T09:31:31.718Z,5.52
2022-12-04T09:34:00.124Z,5.47
2022-12-04T09:36:30.852Z,5.42
2022-12-04T09:38:59.170Z,5.48
2022-12-04T09:42:04.683Z,5.69
2022-12-04T09:44:36.627Z,5.86
2022-12-04T09:47:08.862Z,6.00
2022-12-04T09:49:43.196Z,5.67
2022-12-04T09:52:25.375Z,5.86
2022-12-04T09:54:54.986Z,5.80
2022-12-04T09:57:26.880Z,5.50
2022-12-04T09:59:56.508Z,5.48
2022-12-04T10:02:36.711Z,5.71
2022-12-04T10:05:06.582Z,5.73
2022-12-04T10:07:46.193Z,5.53
2022-12-04T10:10:20.706Z,5.62
2022-12-04T10:13:06.155Z,5.72
2022-12-04T10:15:41.567Z,5.91
2022-12-04T10:18:27.211Z,5.73
2022-12-04T10:21:19.263Z,5.34
2022-12-04T10:23:59.529Z,5.33
2022-12-04T10:26:32.066Z,5.10
2022-12-04T10:29:05.371Z,5.83
2022-12-04T10:31:36.713Z,5.83
2022-12-04T10:34:13.771Z,5.60
2022-12-04T10:36:46.033Z,6.30
2022-12-04T10:39:24.267Z,5.67
2022-12-04T10:41:56.832Z,5.50
2022-12-04T10:44:26.847Z,5.98
2022-12-04T10:46:59.911Z,6.51
2022-12-04T10:49:30.034Z,6.69
2022-12-04T10:51:59.024Z,6.30
2022-12-04T10:54:34.006Z,6.60
2022-12-04T10:57:04.589Z,5.84
2022-12-04T10:59:33.784Z,6.58
2022-12-04T11:02:07.296Z,6.06
2022-12-04T11:04:36.979Z,6.25
2022-12-04T11:07:07.429Z,6.88
2022-12-04T11:09:37.995Z,6.35
2022-12-04T11:12:09.530Z,6.72
2022-12-04T11:14:42.741Z,6.55
2022-12-04T11:17:18.999Z,7.16
2022-12-04T11:19:47.356Z,6.74
2022-12-04T11:22:19.083Z,6.65
2022-12-04T11:24:58.181Z,6.30
2022-12-04T11:27:32.773Z,6.38
2022-12-04T11:30:04.725Z,6.61
2022-12-04T11:32:34.931Z,6.43
2022-12-04T11:35:13.830Z,6.59
2022-12-04T11:37:45.430Z,7.09
2022-12-04T11:40:20.347Z,6.88
2022-12-04T11:43:00.994Z,7.11
2022-12-04T11:45:30.030Z,7.19
2022-12-04T11:48:00.197Z,6.57
2022-12-04T11:50:38.328Z,6.92
2022-12-04T11:53:16.148Z,6.93
2022-12-04T11:56:00.472Z,7.04
2022-12-04T11:58:45.163Z,6.63
2022-12-04T12:01:25.217Z,7.47
2022-12-04T12:04:07.292Z,6.93
2022-12-04T12:06:38.904Z,7.17
2022-12-04T12:09:30.344Z,7.23
2022-12-04T12:12:09.141Z,6.58
2022-12-04T12:14:52.492Z,7.15
2022-12-04T12:17:32.579Z,7.14
2022-12-04T12:20:15.761Z,6.35
2022-12-04T12:23:19.103Z,6.53
2022-12-04T12:25:55.903Z,7.12
2022-12-04T12:28:42.195Z,6.99
2022-12-04T12:31:38.672Z,6.83
2022-12-04T12:34:12.253Z,7.73
2022-12-04T12:36:45.299Z,7.58
2022-12-04T12:39:17.604Z,7.56
2022-12-04T12:41:49.826Z,7.23
2022-12-04T12:44:23.838Z,7.30
2022-12-04T12:46:54.657Z,6.65
2022-12-04T12:49:28.057Z,6.79
2022-12-04T12:52:01.305Z,6.44
2022-12-04T12:54:34.641Z,6.81
2022-12-04T12:57:07.964Z,6.66
2022-12-04T12:59:43.438Z,7.18
2022-12-04T13:02:24.420Z,6.71
2022-12-04T13:04:57.022Z,6.69
2022-12-04T13:07:34.217Z,6.91
2022-12-04T13:10:06.721Z,6.70
2022-12-04T13:12:45.297Z,7.08
2022-12-04T13:15:17.709Z,6.95
2022-12-04T13:17:48.627Z,7.23
2022-12-04T13:20:24.061Z,6.57
2022-12-04T13:23:05.383Z,7.23
2022-12-04T13:25:46.733Z,7.02
2022-12-04T13:28:29.556Z,6.90
2022-12-04T13:31:11.451Z,6.64
2022-12-04T13:33:59.558Z,6.76
2022-12-04T13:36:46.614Z,6.90
2022-12-04T13:39:36.947Z,7.02
2022-12-04T13:42:07.864Z,7.31
2022-12-04T13:44:36.841Z,6.97
2022-12-04T13:47:08.844Z,6.89
2022-12-04T13:49:38.671Z,6.62
2022-12-04T13:52:23.870Z,6.50
2022-12-04T13:54:59.926Z,5.97
2022-12-04T13:57:28.951Z,6.11
2022-12-04T14:00:05.522Z,6.08
2022-12-04T14:02:50.455Z,6.55
2022-12-04T14:05:28.939Z,6.12
2022-12-04T14:08:07.262Z,6.39
2022-12-04T14:10:40.386Z,7.13
2022-12-04T14:13:20.260Z,6.42
2022-12-04T14:15:49.064Z,6.44
2022-12-04T14:18:30.675Z,6.63
2022-12-04T14:21:01.338Z,7.05
2022-12-04T14:23:37.058Z,7.20
2022-12-04T14:26:05.939Z,7.04
2022-12-04T14:28:45.277Z,6.50
2022-12-04T14:31:31.682Z,6.54
2022-12-04T14:34:05.208Z,6.66
2022-12-04T14:36:37.592Z,6.49
2022-12-04T14:39:12.991Z,6.93
2022-12-04T14:41:43.133Z,7.07
2022-12-04T14:44:24.223Z,7.38
2022-12-04T14:46:56.255Z,7.33
2022-12-04T14:49:35.775Z,7.34
2022-12-04T14:52:12.468Z,7.14
2022-12-04T14:54:52.425Z,6.90
2022-12-04T14:57:36.516Z,6.77
2022-12-04T15:00:06.131Z,6.71
2022-12-04T15:02:39.788Z,6.63
2022-12-04T15:05:12.715Z,6.92
2022-12-04T15:07:49.651Z,6.59
2022-12-04T15:10:38.657Z,7.08
2022-12-04T15:13:06.859Z,7.04
2022-12-04T15:15:35.552Z,6.74
2022-12-04T15:18:05.490Z,7.03
2022-12-04T15:20:40.604Z,6.94
2022-12-04T15:23:15.959Z,6.97
2022-12-04T15:25:48.003Z,7.49
2022-12-04T15:28:20.336Z,7.04
2022-12-04T15:30:50.673Z,6.99
2022-12-04T15:33:21.925Z,6.78
2022-12-04T15:35:59.068Z,6.87
2022-12-04T15:38:27.747Z,6.67
2022-12-04T15:40:58.417Z,6.40
2022-12-04T15:43:31.564Z,6.63
2022-12-04T15:46:00.567Z,6.39
2022-12-04T15:48:33.099Z,6.12
2022-12-04T15:51:07.316Z,6.06
2022-12-04T15:53:38.545Z,6.16
2022-12-04T15:56:09.564Z,5.82
2022-12-04T15:58:40.857Z,5.74
2022-12-04T16:01:14.085Z,5.73
2022-12-04T16:03:48.519Z,5.54
2022-12-04T16:06:20.849Z,5.40
2022-12-04T16:08:51.180Z,5.36
2022-12-04T16:11:29.475Z,5.45
2022-12-04T16:14:16.476Z,5.40
2022-12-04T16:16:46.899Z,5.23
2022-12-04T16:19:29.896Z,5.21
2022-12-04T16:21:59.813Z,5.33
2022-12-04T16:24:30.772Z,5.17
2022-12-04T16:27:01.518Z,4.89
2022-12-04T16:29:30.616Z,4.89
2022-12-04T16:32:02.929Z,4.99
2022-12-04T16:34:31.929Z,5.10
2022-12-04T16:37:02.189Z,4.97
2022-12-04T16:39:30.152Z,4.81
2022-12-04T16:41:58.247Z,4.90
2022-12-04T16:44:26.728Z,4.63
2022-12-04T16:46:54.996Z,4.69
2022-12-04T16:49:23.474Z,4.56
2022-12-04T16:51:51.431Z,4.65
2022-12-04T16:54:20.906Z,4.73
2022-12-04T16:56:49.148Z,4.75
2022-12-04T16:59:17.320Z,4.68
2022-12-04T17:01:49.031Z,4.85
2022-12-04T17:04:18.752Z,4.84
2022-12-04T17:06:47.327Z,4.65
2022-12-04T17:09:16.451Z,4.85
2022-12-04T17:11:48.494Z,4.76
2022-12-04T17:14:16.822Z,4.63
2022-12-04T17:16:47.292Z,4.50
2022-12-04T17:19:16.144Z,4.69
2022-12-04T17:21:45.169Z,4.66
2022-12-04T17:24:13.356Z,4.46
2022-12-04T17:26:41.523Z,4.69
2022-12-04T17:29:11.148Z,4.55
2022-12-04T17:31:39.309Z,4.48
2022-12-04T17:34:07.924Z,4.43
2022-12-04T17:36:36.453Z,4.45
2022-12-04T17:39:07.317Z,4.39
2022-12-04T17:41:36.336Z,4.53
2022-12-04T17:44:04.885Z,4.82
2022-12-04T17:46:34.686Z,4.96
2022-12-04T17:49:06.851Z,5.02
2022-12-04T17:51:36.190Z,5.33
2022-12-04T17:54:04.952Z,5.52
2022-12-04T17:56:33.787Z,5.65
2022-12-04T17:59:01.861Z,5.46
2022-12-04T18:01:31.079Z,5.56
2022-12-04T18:04:03.251Z,5.46
2022-12-04T18:06:33.883Z,5.56
2022-12-04T18:09:02.691Z,5.41
2022-12-04T18:11:32.497Z,5.51
2022-12-04T18:14:04.807Z,5.62
2022-12-04T18:16:38.913Z,5.66
2022-12-04T18:19:08.453Z,5.68
2022-12-04T18:21:36.509Z,5.60
2022-12-04T18:24:06.080Z,5.82
2022-12-04T18:26:36.693Z,5.75
2022-12-04T18:29:05.943Z,5.80
2022-12-04T18:31:34.747Z,5.68
2022-12-04T18:34:03.157Z,4.95
2022-12-04T18:36:33.451Z,5.49
2022-12-04T18:39:03.701Z,5.60
2022-12-04T18:41:32.115Z,5.91
2022-12-04T18:44:00.442Z,6.17
2022-12-04T18:46:28.640Z,6.29
2022-12-04T18:48:59.998Z,6.65
2022-12-04T18:51:30.398Z,6.53
2022-12-04T18:54:02.457Z,6.55
2022-12-04T18:56:31.388Z,6.63
2022-12-04T18:59:00.416Z,6.81
2022-12-04T19:01:31.270Z,6.64
2022-12-04T19:04:02.274Z,6.27
2022-12-04T19:06:32.169Z,6.60
2022-12-04T19:09:04.340Z,6.82
2022-12-04T19:11:32.998Z,6.58
2022-12-04T19:14:04.301Z,6.45
2022-12-04T19:16:37.059Z,6.41
2022-12-04T19:19:05.689Z,6.31
2022-12-04T19:21:34.586Z,6.60
2022-12-04T19:24:04.776Z,6.61
2022-12-04T19:26:34.834Z,6.42
2022-12-04T19:29:03.523Z,6.69
2022-12-04T19:31:34.364Z,6.85
2022-12-04T19:34:03.502Z,6.55
2022-12-04T19:36:33.091Z,6.74
2022-12-04T19:39:02.258Z,6.88
2022-12-04T19:41:34.280Z,7.02
2022-12-04T19:44:14.646Z,6.51
2022-12-04T19:46:51.640Z,6.88
2022-12-04T19:49:20.340Z,6.90
2022-12-04T19:51:49.591Z,6.75
2022-12-04T19:54:20.348Z,6.79
2022-12-04T19:56:52.497Z,6.82
2022-12-04T19:59:21.385Z,6.82
2022-12-04T20:01:49.423Z,6.63
2022-12-04T20:04:17.680Z,6.66
2022-12-04T20:06:47.482Z,6.89
2022-12-04T20:09:19.665Z,7.07
2022-12-04T20:11:49.688Z,7.01
2022-12-04T20:14:17.858Z,6.91
2022-12-04T20:16:46.835Z,6.79
2022-12-04T20:19:17.012Z,6.61
2022-12-04T20:21:46.253Z,6.91
2022-12-04T20:24:17.604Z,6.73
2022-12-04T20:26:46.741Z,6.91
2022-12-04T20:29:19.225Z,7.02
2022-12-04T20:31:47.973Z,6.93
2022-12-04T20:34:17.850Z,6.91
2022-12-04T20:36:47.695Z,7.23
2022-12-04T20:39:17.139Z,6.91
2022-12-04T20:41:45.458Z,6.99
2022-12-04T20:44:18.385Z,6.96
2022-12-04T20:46:47.130Z,7.34
2022-12-04T20:49:21.096Z,6.96
2022-12-04T20:51:53.106Z,6.99
2022-12-04T20:54:23.478Z,6.90
2022-12-04T20:56:53.252Z,6.77
2022-12-04T20:59:25.020Z,7.20
2022-12-04T21:01:53.697Z,6.90
2022-12-04T21:04:22.618Z,6.78
2022-12-04T21:06:50.697Z,7.16
2022-12-04T21:09:21.415Z,7.19
2022-12-04T21:11:51.517Z,7.22
2022-12-04T21:14:38.675Z,7.08
2022-12-04T21:17:11.740Z,6.98
2022-12-04T21:19:39.948Z,6.96
2022-12-04T21:22:08.148Z,7.18
2022-12-04T21:24:38.769Z,7.09
2022-12-04T21:27:09.098Z,6.96
2022-12-04T21:29:37.469Z,6.89
2022-12-04T21:32:08.125Z,7.04
2022-12-04T21:34:36.745Z,6.84
2022-12-04T21:37:04.866Z,6.89
2022-12-04T21:39:33.492Z,7.03
2022-12-04T21:42:19.206Z,7.11
2022-12-04T21:44:48.394Z,7.42
2022-12-04T21:47:18.443Z,6.74
2022-12-04T21:49:47.631Z,6.75
2022-12-04T21:52:17.414Z,6.72
2022-12-04T21:54:45.751Z,6.74
2022-12-04T21:57:14.017Z,6.79
2022-12-04T21:59:42.122Z,6.58
2022-12-04T22:02:11.628Z,6.70
2022-12-04T22:04:41.273Z,6.77
2022-12-04T22:07:09.877Z,6.67
2022-12-04T22:09:41.168Z,6.71
2022-12-04T22:14:57.403Z,6.71
2022-12-04T22:17:25.641Z,6.67
2022-12-04T22:19:55.796Z,6.86
2022-12-04T22:22:24.302Z,6.56
2022-12-04T22:24:52.302Z,6.82
2022-12-04T22:27:20.489Z,6.56
2022-12-04T22:29:51.084Z,6.86
2022-12-04T22:32:19.588Z,7.00
2022-12-04T22:34:48.753Z,7.13
2022-12-04T22:37:18.408Z,7.18
2022-12-04T22:39:46.346Z,7.16
2022-12-04T22:42:14.429Z,6.92
2022-12-04T22:44:42.566Z,7.29
2022-12-04T22:47:10.635Z,7.50
2022-12-04T22:49:38.636Z,7.02
2022-12-04T22:52:06.886Z,7.13
2022-12-04T22:54:38.647Z,7.53
2022-12-04T22:57:07.131Z,7.45
2022-12-04T22:59:35.178Z,7.08
2022-12-04T23:02:03.298Z,7.39
2022-12-04T23:04:31.319Z,7.76
2022-12-04T23:06:59.454Z,7.35
2022-12-04T23:09:31.172Z,7.31
2022-12-04T23:12:00.903Z,7.30
2022-12-04T23:14:29.788Z,7.52
2022-12-04T23:16:58.092Z,7.22
2022-12-04T23:19:26.175Z,7.00
2022-12-04T23:21:57.199Z,7.06
2022-12-04T23:24:26.129Z,7.62
2022-12-04T23:26:54.365Z,6.70
2022-12-04T23:29:51.424Z,7.40
2022-12-04T23:32:11.920Z,7.54
2022-12-04T23:34:40.071Z,7.16
2022-12-04T23:37:08.080Z,7.10
2022-12-04T23:39:36.559Z,7.50
2022-12-04T23:42:05.207Z,7.23
2022-12-04T23:44:36.009Z,7.83
2022-12-04T23:47:04.248Z,7.34
2022-12-04T23:49:32.333Z,6.97
2022-12-04T23:52:00.388Z,7.62
2022-12-04T23:54:30.299Z,7.41
2022-12-04T23:56:58.539Z,7.40
2022-12-04T23:59:26.612Z,7.18
